createdAt,value
2023-11-30T00:01:25.654Z,64.95
2023-11-30T00:03:54.476Z,64.52
2023-11-30T00:06:23.735Z,64.01
2023-11-30T00:08:51.878Z,63.81
2023-11-30T00:11:19.808Z,63.94
2023-11-30T00:13:47.568Z,64.24
2023-11-30T00:16:15.363Z,63.81
2023-11-30T00:18:43.184Z,64.05
2023-11-30T00:21:10.963Z,64.39
2023-11-30T00:23:40.074Z,63.76
2023-11-30T00:26:08.155Z,63.90
2023-11-30T00:28:37.482Z,63.78
2023-11-30T00:31:06.427Z,63.29
2023-11-30T00:33:53.088Z,63.94
2023-11-30T00:36:21.006Z,63.83
2023-11-30T00:38:50.475Z,64.79
2023-11-30T00:41:18.645Z,64.85
2023-11-30T00:43:46.458Z,64.89
2023-11-30T00:46:16.007Z,65.28
2023-11-30T00:48:44.345Z,64.70
2023-11-30T00:51:12.715Z,64.57
2023-11-30T00:53:41.150Z,64.82
2023-11-30T00:56:12.901Z,64.43
2023-11-30T00:58:40.750Z,64.15
2023-11-30T01:01:08.658Z,64.61
2023-11-30T01:03:36.551Z,64.43
2023-11-30T01:06:04.485Z,64.34
2023-11-30T01:08:32.333Z,64.00
2023-11-30T01:11:00.083Z,63.90
2023-11-30T01:13:29.194Z,63.87
2023-11-30T01:15:57.145Z,64.46
2023-11-30T01:18:25.052Z,64.36
2023-11-30T01:20:52.886Z,64.18
2023-11-30T01:23:20.877Z,63.23
2023-11-30T01:25:48.652Z,62.12
2023-11-30T01:28:16.415Z,62.13
2023-11-30T01:30:45.740Z,62.26
2023-11-30T01:33:13.558Z,62.30
2023-11-30T01:35:41.353Z,62.12
2023-11-30T01:38:09.172Z,62.02
2023-11-30T01:40:36.961Z,62.51
2023-11-30T01:43:07.591Z,62.25
2023-11-30T01:45:35.478Z,62.41
2023-11-30T01:48:04.807Z,62.53
2023-11-30T01:50:32.689Z,62.68
2023-11-30T01:53:00.729Z,63.29
2023-11-30T01:55:29.354Z,62.74
2023-11-30T01:57:57.672Z,63.00
2023-11-30T02:00:26.738Z,63.71
2023-11-30T02:02:54.953Z,63.83
2023-11-30T02:05:24.045Z,63.20
2023-11-30T02:07:52.678Z,62.73
2023-11-30T02:10:21.014Z,62.68
2023-11-30T02:12:48.967Z,62.52
2023-11-30T02:15:17.539Z,61.98
2023-11-30T02:17:46.443Z,61.56
2023-11-30T02:20:15.006Z,62.75
2023-11-30T02:22:44.796Z,61.52
2023-11-30T02:25:12.543Z,62.01
2023-11-30T02:27:40.285Z,62.04
2023-11-30T02:30:10.580Z,61.91
2023-11-30T02:32:38.398Z,61.45
2023-11-30T02:35:07.131Z,61.81
2023-11-30T02:37:35.488Z,62.29
2023-11-30T02:40:05.469Z,61.66
2023-11-30T02:42:33.233Z,62.39
2023-11-30T02:45:01.043Z,62.02
2023-11-30T02:47:28.881Z,61.48
2023-11-30T02:49:56.614Z,61.78
2023-11-30T02:52:24.352Z,62.34
2023-11-30T02:54:52.101Z,62.17
2023-11-30T02:57:21.431Z,62.84
2023-11-30T02:59:49.236Z,63.19
2023-11-30T03:02:17.233Z,62.87
2023-11-30T03:04:46.180Z,61.78
2023-11-30T03:07:13.968Z,61.03
2023-11-30T03:09:41.842Z,61.85
2023-11-30T03:12:09.830Z,62.85
2023-11-30T03:14:39.000Z,63.47
2023-11-30T03:17:06.722Z,62.98
2023-11-30T03:19:34.474Z,61.93
2023-11-30T03:22:02.200Z,61.76
2023-11-30T03:24:29.945Z,62.26
2023-11-30T03:26:57.748Z,60.90
2023-11-30T03:29:25.579Z,60.49
2023-11-30T03:31:54.931Z,60.39
2023-11-30T03:34:22.674Z,60.41
2023-11-30T03:36:50.437Z,62.17
2023-11-30T03:39:18.348Z,62.62
2023-11-30T03:41:46.175Z,61.60
2023-11-30T03:44:13.935Z,60.66
2023-11-30T03:46:41.742Z,61.10
2023-11-30T03:49:10.931Z,61.81
2023-11-30T03:51:38.753Z,61.42
2023-11-30T03:54:07.005Z,60.15
2023-11-30T03:56:34.832Z,61.25
2023-11-30T03:59:02.563Z,61.05
2023-11-30T04:01:30.592Z,60.44
2023-11-30T04:03:58.462Z,59.35
2023-11-30T04:06:27.600Z,60.30
2023-11-30T04:08:56.829Z,60.94
2023-11-30T04:11:24.593Z,61.39
2023-11-30T04:13:52.619Z,61.20
2023-11-30T04:16:20.688Z,60.00
2023-11-30T04:18:48.627Z,60.01
2023-11-30T04:21:16.572Z,60.39
2023-11-30T04:23:47.379Z,60.30
2023-11-30T04:26:15.248Z,59.64
2023-11-30T04:28:43.372Z,59.73
2023-11-30T04:31:11.531Z,60.15
2023-11-30T04:33:39.689Z,60.20
2023-11-30T04:36:08.384Z,60.58
2023-11-30T04:38:36.171Z,60.64
2023-11-30T04:41:05.556Z,61.52
2023-11-30T04:43:37.412Z,61.04
2023-11-30T04:46:06.165Z,60.94
2023-11-30T04:48:34.668Z,60.20
2023-11-30T04:51:02.555Z,60.74
2023-11-30T04:53:30.294Z,60.61
2023-11-30T04:55:58.056Z,60.73
2023-11-30T04:58:27.893Z,60.74
2023-11-30T05:00:55.671Z,60.55
2023-11-30T05:03:23.604Z,59.82
2023-11-30T05:05:51.475Z,60.00
2023-11-30T05:08:19.214Z,59.83
2023-11-30T05:10:47.070Z,59.51
2023-11-30T05:13:15.223Z,59.91
2023-11-30T05:15:46.351Z,60.19
2023-11-30T05:18:15.361Z,60.12
2023-11-30T05:20:43.200Z,61.09
2023-11-30T05:23:10.958Z,61.80
2023-11-30T05:25:38.933Z,61.43
2023-11-30T05:28:07.634Z,60.89
2023-11-30T05:30:35.428Z,60.66
2023-11-30T05:33:05.431Z,60.44
2023-11-30T05:35:34.274Z,60.35
2023-11-30T05:38:02.061Z,59.88
2023-11-30T05:40:29.915Z,59.72
2023-11-30T05:42:57.649Z,58.79
2023-11-30T05:45:25.724Z,58.13
2023-11-30T05:47:54.196Z,59.47
2023-11-30T05:50:23.687Z,59.21
2023-11-30T05:52:51.451Z,59.08
2023-11-30T05:55:19.308Z,59.25
2023-11-30T05:57:47.095Z,59.34
2023-11-30T06:00:16.373Z,59.26
2023-11-30T06:02:44.433Z,59.28
2023-11-30T06:05:12.510Z,59.52
2023-11-30T06:07:45.671Z,59.50
2023-11-30T06:10:15.111Z,57.06
2023-11-30T06:12:42.952Z,58.49
2023-11-30T06:15:11.829Z,59.41
2023-11-30T06:17:39.687Z,59.24
2023-11-30T06:20:11.748Z,57.43
2023-11-30T06:22:41.115Z,58.89
2023-11-30T06:25:10.150Z,58.99
2023-11-30T06:27:38.196Z,58.56
2023-11-30T06:30:07.589Z,58.03
2023-11-30T06:32:35.412Z,58.24
2023-11-30T06:35:03.551Z,57.79
2023-11-30T06:37:31.358Z,57.11
2023-11-30T06:40:00.504Z,57.48
2023-11-30T06:42:28.366Z,57.91
2023-11-30T06:44:56.171Z,57.66
2023-11-30T06:47:24.010Z,58.11
2023-11-30T06:49:51.873Z,58.34
2023-11-30T06:52:19.714Z,58.60
2023-11-30T06:54:47.467Z,58.50
2023-11-30T06:57:16.762Z,59.56
2023-11-30T06:59:44.683Z,59.55
2023-11-30T07:02:12.678Z,59.22
2023-11-30T07:04:40.565Z,59.51
2023-11-30T07:07:10.102Z,58.99
2023-11-30T07:09:40.665Z,59.17
2023-11-30T07:12:09.257Z,59.06
2023-11-30T07:14:50.562Z,60.20
2023-11-30T07:17:19.626Z,59.96
2023-11-30T07:19:47.559Z,59.60
2023-11-30T07:22:15.389Z,60.70
2023-11-30T07:24:43.254Z,59.99
2023-11-30T07:27:11.394Z,60.17
2023-11-30T07:29:40.585Z,60.85
2023-11-30T07:32:09.810Z,60.63
2023-11-30T07:34:37.692Z,60.62
2023-11-30T07:37:05.782Z,60.59
2023-11-30T07:39:34.192Z,60.79
2023-11-30T07:42:03.951Z,60.56
2023-11-30T07:44:32.294Z,60.94
2023-11-30T07:47:01.470Z,61.25
2023-11-30T07:49:29.699Z,62.08
2023-11-30T07:51:57.665Z,62.14
2023-11-30T07:54:25.581Z,62.26
2023-11-30T07:56:53.600Z,62.13
2023-11-30T07:59:21.394Z,62.72
2023-11-30T08:01:49.205Z,62.62
2023-11-30T08:04:18.659Z,62.18
2023-11-30T08:06:47.232Z,62.27
2023-11-30T08:09:15.698Z,62.82
2023-11-30T08:11:43.617Z,62.97
2023-11-30T08:14:11.474Z,63.27
2023-11-30T08:16:41.637Z,63.03
2023-11-30T08:19:09.970Z,63.32
2023-11-30T08:21:41.607Z,63.24
2023-11-30T08:24:09.829Z,63.10
2023-11-30T08:26:37.746Z,62.77
2023-11-30T08:29:05.879Z,62.57
2023-11-30T08:31:34.884Z,62.29
2023-11-30T08:34:02.910Z,62.25
2023-11-30T08:36:30.844Z,62.66
2023-11-30T08:39:00.086Z,62.78
2023-11-30T08:41:28.016Z,62.63
2023-11-30T08:43:56.540Z,62.47
2023-11-30T08:46:24.512Z,62.48
2023-11-30T08:48:52.670Z,62.52
2023-11-30T08:51:20.645Z,62.53
2023-11-30T08:53:48.451Z,62.05
2023-11-30T08:56:17.729Z,62.13
2023-11-30T08:58:45.737Z,62.23
2023-11-30T09:01:13.626Z,62.51
2023-11-30T09:03:42.563Z,62.86
2023-11-30T09:06:11.402Z,62.38
2023-11-30T09:08:39.382Z,62.15
2023-11-30T09:11:08.197Z,62.51
2023-11-30T09:13:37.445Z,63.59
2023-11-30T09:16:05.669Z,63.73
2023-11-30T09:18:33.869Z,64.69
2023-11-30T09:21:02.008Z,64.02
2023-11-30T09:23:30.880Z,63.82
2023-11-30T09:25:58.801Z,63.65
2023-11-30T09:28:27.863Z,64.16
2023-11-30T09:30:56.990Z,64.13
2023-11-30T09:33:25.463Z,64.21
2023-11-30T09:35:53.542Z,64.91
2023-11-30T09:38:21.302Z,65.00
2023-11-30T09:40:49.197Z,64.75
2023-11-30T09:43:17.978Z,64.89
2023-11-30T09:45:47.323Z,64.68
2023-11-30T09:48:16.885Z,64.55
2023-11-30T09:50:44.824Z,64.41
2023-11-30T09:53:13.051Z,64.50
2023-11-30T09:55:41.031Z,64.33
2023-11-30T09:58:08.823Z,64.68
2023-11-30T10:00:36.797Z,65.37
2023-11-30T10:03:07.100Z,65.23
2023-11-30T10:05:36.450Z,66.19
2023-11-30T10:08:04.437Z,66.21
2023-11-30T10:10:32.503Z,65.51
2023-11-30T10:13:00.321Z,66.11
2023-11-30T10:15:28.241Z,66.56
2023-11-30T10:17:56.302Z,67.29
2023-11-30T10:20:26.912Z,67.61
2023-11-30T10:22:56.268Z,67.68
2023-11-30T10:25:24.082Z,67.81
2023-11-30T10:27:54.628Z,68.07
2023-11-30T10:30:26.601Z,68.52
2023-11-30T10:32:54.974Z,68.94
2023-11-30T10:35:24.299Z,69.18
2023-11-30T10:37:54.168Z,69.86
2023-11-30T10:40:26.224Z,69.92
2023-11-30T10:42:54.050Z,69.90
2023-11-30T10:45:22.684Z,70.16
2023-11-30T10:47:52.684Z,70.33
2023-11-30T10:50:21.859Z,70.29
2023-11-30T10:52:53.919Z,70.06
2023-11-30T10:55:24.777Z,70.25
2023-11-30T10:57:58.272Z,70.70
2023-11-30T11:00:26.981Z,70.38
2023-11-30T11:02:55.157Z,70.93
2023-11-30T11:05:23.037Z,70.91
2023-11-30T11:07:52.553Z,70.63
2023-11-30T11:10:25.938Z,71.46
2023-11-30T11:12:54.028Z,70.86
2023-11-30T11:15:24.095Z,71.50
2023-11-30T11:17:54.175Z,71.81
2023-11-30T11:20:27.640Z,71.76
2023-11-30T11:22:55.876Z,71.61
2023-11-30T11:25:26.809Z,71.64
2023-11-30T11:27:55.932Z,72.14
2023-11-30T11:30:27.812Z,72.38
2023-11-30T11:32:59.073Z,72.21
2023-11-30T11:35:28.074Z,72.23
2023-11-30T11:37:58.949Z,72.11
2023-11-30T11:40:29.251Z,71.65
2023-11-30T11:42:57.151Z,71.83
2023-11-30T11:45:25.775Z,71.81
2023-11-30T11:47:54.219Z,71.58
2023-11-30T11:50:22.257Z,71.67
2023-11-30T11:52:50.641Z,71.69
2023-11-30T11:55:18.899Z,72.03
2023-11-30T11:57:48.072Z,71.94
2023-11-30T12:00:19.474Z,72.45
2023-11-30T12:02:47.528Z,72.58
2023-11-30T12:05:17.414Z,72.57
2023-11-30T12:07:50.285Z,71.89
2023-11-30T12:10:31.693Z,71.52
2023-11-30T12:13:02.532Z,71.53
2023-11-30T12:15:31.400Z,71.54
2023-11-30T12:17:59.505Z,71.71
2023-11-30T12:20:28.107Z,71.41
2023-11-30T12:22:56.770Z,71.73
2023-11-30T12:25:25.833Z,71.14
2023-11-30T12:27:54.070Z,71.39
2023-11-30T12:30:24.739Z,71.38
2023-11-30T12:32:53.132Z,71.20
2023-11-30T12:35:21.128Z,70.82
2023-11-30T12:37:50.110Z,71.14
2023-11-30T12:40:18.243Z,71.18
2023-11-30T12:42:46.293Z,71.14
2023-11-30T12:45:14.916Z,71.49
2023-11-30T12:47:46.516Z,71.52
2023-11-30T12:50:15.314Z,71.49
2023-11-30T12:52:43.281Z,71.31
2023-11-30T12:55:11.391Z,70.61
2023-11-30T12:57:40.503Z,70.83
2023-11-30T13:00:15.944Z,70.91
2023-11-30T13:02:48.517Z,70.65
2023-11-30T13:05:17.550Z,70.03
2023-11-30T13:07:45.516Z,70.02
2023-11-30T13:10:13.760Z,69.69
2023-11-30T13:12:43.310Z,69.20
2023-11-30T13:15:13.408Z,68.98
2023-11-30T13:17:42.182Z,68.52
2023-11-30T13:20:14.672Z,68.94
2023-11-30T13:22:45.851Z,68.80
2023-11-30T13:25:14.918Z,68.50
2023-11-30T13:27:46.650Z,67.67
2023-11-30T13:30:15.699Z,68.43
2023-11-30T13:32:43.743Z,67.81
2023-11-30T13:35:12.981Z,68.05
2023-11-30T13:37:40.883Z,68.34
2023-11-30T13:40:10.746Z,68.90
2023-11-30T13:42:38.963Z,68.68
2023-11-30T13:45:07.420Z,68.32
2023-11-30T13:47:35.569Z,67.65
2023-11-30T13:50:04.519Z,67.10
2023-11-30T13:52:33.793Z,66.74
2023-11-30T13:55:01.655Z,66.66
2023-11-30T13:57:29.935Z,67.62
2023-11-30T13:59:57.735Z,67.60
2023-11-30T14:02:25.599Z,67.31
2023-11-30T14:04:53.692Z,67.33
2023-11-30T14:07:21.537Z,67.14
2023-11-30T14:09:50.807Z,66.67
2023-11-30T14:12:18.674Z,66.56
2023-11-30T14:14:46.778Z,66.37
2023-11-30T14:17:14.891Z,66.03
2023-11-30T14:19:42.724Z,65.66
2023-11-30T14:22:10.650Z,65.72
2023-11-30T14:24:38.400Z,65.59
2023-11-30T14:27:07.653Z,65.80
2023-11-30T14:29:35.548Z,65.46
2023-11-30T14:32:04.590Z,64.40
2023-11-30T14:34:32.413Z,64.04
2023-11-30T14:37:00.181Z,63.78
2023-11-30T14:39:29.429Z,63.48
2023-11-30T14:41:57.684Z,63.54
2023-11-30T14:44:27.180Z,63.91
2023-11-30T14:46:55.522Z,63.56
2023-11-30T14:49:23.511Z,63.27
2023-11-30T14:51:51.375Z,63.32
2023-11-30T14:54:19.224Z,63.47
2023-11-30T14:56:47.092Z,63.31
2023-11-30T14:59:14.908Z,63.58
2023-11-30T15:01:44.235Z,63.62
2023-11-30T15:04:12.206Z,63.30
2023-11-30T15:06:40.671Z,63.50
2023-11-30T15:09:09.335Z,63.42
2023-11-30T15:11:38.427Z,63.28
2023-11-30T15:14:06.843Z,63.68
2023-11-30T15:16:34.798Z,64.47
2023-11-30T15:19:04.204Z,64.77
2023-11-30T15:21:32.093Z,64.96
2023-11-30T15:23:59.883Z,64.79
2023-11-30T15:26:29.656Z,64.47
2023-11-30T15:28:57.627Z,64.06
2023-11-30T15:31:26.897Z,63.77
2023-11-30T15:33:55.142Z,64.12
2023-11-30T15:36:24.549Z,64.52
2023-11-30T15:38:52.546Z,64.65
2023-11-30T15:41:20.451Z,64.12
2023-11-30T15:43:48.270Z,63.99
2023-11-30T15:46:16.090Z,63.39
2023-11-30T15:48:43.890Z,63.34
2023-11-30T15:51:12.719Z,62.96
2023-11-30T15:53:41.951Z,63.34
2023-11-30T15:56:10.322Z,63.69
2023-11-30T15:58:38.900Z,63.55
2023-11-30T16:01:11.593Z,63.66
2023-11-30T16:03:39.405Z,63.51
2023-11-30T16:06:11.305Z,64.23
2023-11-30T16:08:39.359Z,63.84
2023-11-30T16:11:15.076Z,63.94
2023-11-30T16:13:43.091Z,63.28
2023-11-30T16:16:13.443Z,63.27
2023-11-30T16:18:41.850Z,63.38
2023-11-30T16:21:16.618Z,64.08
2023-11-30T16:23:45.631Z,64.08
2023-11-30T16:26:19.982Z,64.13
2023-11-30T16:28:48.166Z,64.05
2023-11-30T16:31:16.021Z,63.86
2023-11-30T16:33:44.570Z,64.17
2023-11-30T16:36:13.412Z,63.48
2023-11-30T16:38:41.311Z,64.17
2023-11-30T16:41:09.669Z,64.98
2023-11-30T16:43:38.868Z,65.50
2023-11-30T16:46:08.186Z,66.01
2023-11-30T16:48:36.803Z,65.52
2023-11-30T16:51:07.340Z,65.78
2023-11-30T16:53:35.549Z,65.17
2023-11-30T16:56:03.975Z,65.55
2023-11-30T16:58:32.893Z,65.61
2023-11-30T17:01:02.289Z,65.57
2023-11-30T17:03:30.093Z,66.03
2023-11-30T17:05:58.018Z,66.33
2023-11-30T17:08:25.948Z,66.47
2023-11-30T17:10:53.951Z,66.43
2023-11-30T17:13:23.565Z,65.22
2023-11-30T17:15:53.579Z,65.02
2023-11-30T17:18:23.177Z,65.28
2023-11-30T17:20:51.149Z,65.65
2023-11-30T17:23:19.026Z,65.36
2023-11-30T17:25:47.493Z,65.36
2023-11-30T17:28:15.358Z,64.56
2023-11-30T17:30:43.195Z,64.68
2023-11-30T17:33:11.388Z,64.34
2023-11-30T17:35:41.887Z,64.42
2023-11-30T17:38:09.793Z,64.46
2023-11-30T17:40:37.588Z,64.41
2023-11-30T17:43:05.383Z,64.20
2023-11-30T17:45:33.312Z,64.14
2023-11-30T17:48:01.143Z,63.94
2023-11-30T17:50:29.071Z,62.69
2023-11-30T17:52:58.362Z,62.68
2023-11-30T17:55:26.182Z,62.47
2023-11-30T17:57:54.135Z,61.97
2023-11-30T18:00:22.076Z,62.27
2023-11-30T18:02:50.108Z,61.88
2023-11-30T18:05:18.072Z,62.02
2023-11-30T18:07:45.962Z,62.17
2023-11-30T18:10:15.095Z,62.24
2023-11-30T18:12:43.213Z,62.31
2023-11-30T18:15:11.416Z,62.50
2023-11-30T18:17:39.302Z,63.04
2023-11-30T18:20:07.851Z,62.85
2023-11-30T18:22:35.698Z,63.17
2023-11-30T18:25:03.621Z,63.56
2023-11-30T18:27:33.415Z,63.13
2023-11-30T18:30:01.346Z,62.83
2023-11-30T18:32:29.617Z,63.09
2023-11-30T18:34:57.616Z,62.53
2023-11-30T18:37:25.680Z,62.88
2023-11-30T18:39:56.041Z,62.53
2023-11-30T18:42:24.482Z,62.60
2023-11-30T18:44:53.676Z,62.69
2023-11-30T18:47:21.445Z,62.17
2023-11-30T18:49:49.680Z,61.32
2023-11-30T18:52:17.942Z,61.36
2023-11-30T18:54:47.915Z,61.09
2023-11-30T18:57:15.941Z,60.87
2023-11-30T18:59:43.984Z,60.99
2023-11-30T19:02:13.185Z,61.56
2023-11-30T19:04:42.970Z,61.77
2023-11-30T19:07:10.868Z,61.64
2023-11-30T19:09:38.841Z,61.39
2023-11-30T19:12:08.995Z,61.12
2023-11-30T19:14:39.090Z,60.87
2023-11-30T19:17:09.330Z,61.43
2023-11-30T19:19:39.251Z,61.42
2023-11-30T19:22:07.381Z,61.22
2023-11-30T19:24:35.234Z,61.45
2023-11-30T19:27:03.099Z,61.36
2023-11-30T19:29:32.943Z,61.31
2023-11-30T19:32:01.226Z,61.32
2023-11-30T19:34:29.058Z,61.21
2023-11-30T19:36:58.342Z,60.86
2023-11-30T19:39:27.665Z,60.98
2023-11-30T19:41:55.642Z,61.10
2023-11-30T19:44:23.437Z,60.98
2023-11-30T19:46:51.891Z,60.92
2023-11-30T19:49:20.644Z,61.16
2023-11-30T19:51:48.519Z,60.87
2023-11-30T19:54:17.780Z,60.62
2023-11-30T19:56:45.904Z,60.46
2023-11-30T19:59:13.782Z,60.49
2023-11-30T20:01:41.841Z,60.53
2023-11-30T20:04:09.815Z,60.42
2023-11-30T20:06:37.698Z,60.22
2023-11-30T20:09:05.647Z,60.62
2023-11-30T20:11:35.165Z,60.34
2023-11-30T20:14:03.054Z,59.96
2023-11-30T20:16:31.143Z,60.48
2023-11-30T20:18:58.886Z,60.21
2023-11-30T20:21:26.763Z,59.99
2023-11-30T20:23:54.926Z,60.52
2023-11-30T20:26:22.789Z,60.45
2023-11-30T20:28:51.968Z,60.32
2023-11-30T20:31:21.227Z,60.30
2023-11-30T20:33:51.292Z,60.87
2023-11-30T20:36:19.251Z,61.09
2023-11-30T20:38:47.445Z,60.97
2023-11-30T20:41:15.483Z,60.92
2023-11-30T20:43:43.314Z,60.79
2023-11-30T20:46:15.920Z,60.73
2023-11-30T20:48:44.734Z,60.62
2023-11-30T20:51:14.831Z,60.54
2023-11-30T20:53:43.440Z,60.55
2023-11-30T20:56:12.067Z,60.51
2023-11-30T20:58:39.982Z,60.39
2023-11-30T21:01:09.079Z,60.43
2023-11-30T21:03:38.833Z,60.88
2023-11-30T21:06:07.502Z,60.99
2023-11-30T21:08:35.319Z,60.72
2023-11-30T21:11:03.456Z,60.91
2023-11-30T21:13:33.324Z,60.96
2023-11-30T21:16:01.346Z,61.13
2023-11-30T21:18:29.404Z,61.54
2023-11-30T21:20:59.029Z,62.08
2023-11-30T21:23:26.840Z,61.90
2023-11-30T21:25:55.322Z,61.77
2023-11-30T21:28:23.094Z,61.37
2023-11-30T21:30:50.967Z,61.39
2023-11-30T21:33:18.892Z,61.49
2023-11-30T21:35:46.715Z,61.92
2023-11-30T21:38:15.925Z,62.28
2023-11-30T21:40:43.995Z,62.72
2023-11-30T21:43:12.193Z,62.55
2023-11-30T21:45:40.055Z,62.87
2023-11-30T21:48:08.289Z,62.86
2023-11-30T21:50:36.097Z,62.68
2023-11-30T21:53:04.948Z,62.57
2023-11-30T21:55:34.156Z,62.97
2023-11-30T21:58:01.963Z,62.91
2023-11-30T22:00:29.843Z,62.93
2023-11-30T22:02:58.004Z,63.32
2023-11-30T22:05:30.990Z,63.12
2023-11-30T22:08:04.108Z,63.04
2023-11-30T22:10:31.928Z,63.07
2023-11-30T22:13:01.197Z,63.15
2023-11-30T22:15:29.129Z,63.31
2023-11-30T22:17:57.668Z,63.41
2023-11-30T22:20:25.488Z,63.48
2023-11-30T22:22:53.631Z,63.28
2023-11-30T22:25:21.448Z,62.81
2023-11-30T22:27:49.281Z,63.07
2023-11-30T22:30:18.676Z,63.10
2023-11-30T22:32:46.639Z,62.47
2023-11-30T22:35:14.544Z,62.18
2023-11-30T22:37:42.439Z,61.63
2023-11-30T22:40:11.213Z,61.73
2023-11-30T22:42:39.104Z,61.59
2023-11-30T22:45:07.889Z,61.85
2023-11-30T22:47:37.558Z,61.74
2023-11-30T22:50:06.026Z,61.54
2023-11-30T22:52:33.957Z,61.48
2023-11-30T22:55:01.936Z,60.71
2023-11-30T22:57:29.909Z,61.40
2023-11-30T22:59:57.736Z,61.19
2023-11-30T23:02:28.214Z,60.92
2023-11-30T23:04:58.521Z,61.08
2023-11-30T23:07:26.482Z,61.11
2023-11-30T23:09:54.434Z,60.88
2023-11-30T23:12:22.188Z,60.86
2023-11-30T23:14:50.168Z,60.51
2023-11-30T23:17:19.469Z,60.54
2023-11-30T23:19:47.278Z,60.45
2023-11-30T23:22:16.607Z,60.65
2023-11-30T23:24:44.466Z,60.75
2023-11-30T23:27:12.223Z,61.24
2023-11-30T23:29:41.363Z,61.13
2023-11-30T23:32:09.548Z,61.13
2023-11-30T23:34:38.160Z,60.86
2023-11-30T23:37:06.488Z,60.23
2023-11-30T23:39:35.657Z,60.49
2023-11-30T23:42:03.395Z,60.63
2023-11-30T23:44:31.290Z,60.57
2023-11-30T23:46:59.112Z,60.45
2023-11-30T23:49:27.118Z,59.80
2023-11-30T23:51:55.111Z,59.92
2023-11-30T23:54:22.983Z,60.19
2023-11-30T23:56:52.076Z,60.21
2023-11-30T23:59:20.106Z,59.80
